Hamiota, Canada
Current Conditions -  °F | °C
As of 3:00 PM on Sunday 23 Nov 2014 (Local Time) from CYBR Reporting Station
Light Snow Light Snow  
Wind Chill: -2°   Ceiling: 2900
Heat Index: 14°   Visibility: 12mi
Dew Point:   Wind: 16mph
Humidity: 79%   Direction: 330°NNW
Pressure: 29.61"   Gusts: NA
Location:  50.18°N, 100.6°W
Report Text: CYBR 232100Z 33014KT 12SM -SN OVC029 M10/M13 A2961 RMK SC8 SLP058
Loading
Personal Weather Stations






























Interactive Weather Map New forecast layout! Learn more

10-Day Weather Forecast

Advertisements
Track Severe Weather on mobile